Time;durP1;ratioP1;P1;durP2;ratioP2;P2;SDS_P1;SDS_P2;PMS_P1;PMS_P2;Temp;Humidity;BMP_temperature;BMP_pressure;BME280_temperature;BME280_humidity;BME280_pressure;Samples;Min_cycle;Max_cycle;Signal;HPM_P1;HPM_P2
2022/10/07 04:30:42;;;;;;;;;10.00;10.00;;;;;13.82;60.53;102205.28;5037216;28;45736;-72
2022/10/07 04:33:08;;;;;;;;;12.75;11.50;;;;;13.82;60.25;102189.09;5055045;28;45502;-72
2022/10/07 04:35:35;;;;;;;;;9.25;9.25;;;;;13.83;60.55;102182.78;5055138;28;45324;-73
2022/10/07 04:38:01;;;;;;;;;12.25;9.00;;;;;13.73;60.37;102166.06;5055736;28;45252;-73
2022/10/07 04:40:26;;;;;;;;;11.00;11.00;;;;;13.84;60.07;102177.31;5054736;28;45512;-71
2022/10/07 04:45:36;;;;;;;;;6.25;6.25;;;;;13.87;60.02;102185.28;5056863;28;45379;-72
2022/10/07 04:48:04;;;;;;;;;10.25;10.25;;;;;13.91;60.00;102191.47;5056862;28;45553;-72
2022/10/07 04:50:31;;;;;;;;;14.00;12.00;;;;;13.91;59.67;102184.25;5054864;28;46075;-73
2022/10/07 04:52:56;;;;;;;;;11.25;9.50;;;;;13.84;59.44;102166.56;5055247;28;45378;-72
2022/10/07 04:55:22;;;;;;;;;11.25;11.25;;;;;13.84;59.63;102169.25;5055244;28;45438;-70
2022/10/07 04:57:48;;;;;;;;;9.75;8.75;;;;;13.92;59.83;102190.53;5055267;28;45477;-72
2022/10/07 05:00:14;;;;;;;;;7.75;6.75;;;;;13.89;59.54;102167.25;5054667;28;46262;-72
2022/10/07 05:02:39;;;;;;;;;10.50;10.50;;;;;13.95;59.27;102175.09;5036955;28;45254;-71
2022/10/07 05:05:05;;;;;;;;;9.75;9.75;;;;;13.89;59.52;102169.94;5054702;28;45489;-72
2022/10/07 05:07:31;;;;;;;;;8.75;8.00;;;;;13.88;59.19;102170.88;5058140;28;45513;-71
2022/10/07 05:09:57;;;;;;;;;8.00;8.00;;;;;13.89;59.31;102178.03;5035756;28;46587;-72
2022/10/07 05:12:23;;;;;;;;;11.50;11.50;;;;;13.80;59.58;102164.88;5041497;28;45304;-77
2022/10/07 05:14:49;;;;;;;;;10.00;10.00;;;;;13.78;59.25;102165.91;5054566;28;45215;-76
2022/10/07 05:17:15;;;;;;;;;13.75;11.25;;;;;13.71;59.92;102164.34;5054819;28;45344;-75
2022/10/07 05:19:40;;;;;;;;;4.75;4.75;;;;;13.74;59.92;102175.91;5054328;28;46139;-72
2022/10/07 05:22:06;;;;;;;;;9.25;9.25;;;;;13.70;59.78;102173.34;5036099;28;46152;-74
2022/10/07 05:24:31;;;;;;;;;11.75;11.75;;;;;13.66;59.77;102163.63;5035748;28;45453;-72
2022/10/07 05:26:58;;;;;;;;;16.00;11.25;;;;;13.68;60.39;102170.75;5054398;28;45870;-72
2022/10/07 05:29:23;;;;;;;;;13.75;13.00;;;;;13.68;60.39;102169.84;5054113;28;45288;-71
2022/10/07 05:31:49;;;;;;;;;12.25;11.75;;;;;13.69;59.92;102164.41;5035995;28;45400;-72
2022/10/07 05:34:15;;;;;;;;;11.75;11.75;;;;;13.71;60.29;102170.59;5054468;28;45463;-74
2022/10/07 05:36:42;;;;;;;;;12.25;11.25;;;;;13.57;59.92;102137.91;5054233;28;45304;-76
2022/10/07 05:39:10;;;;;;;;;16.50;11.00;;;;;13.71;59.75;102159.81;5053637;28;45429;-74
2022/10/07 05:41:36;;;;;;;;;18.75;13.00;;;;;13.68;59.92;102162.66;5054321;28;45370;-73
2022/10/07 05:44:01;;;;;;;;;11.00;9.75;;;;;13.71;60.10;102167.03;5054350;28;45361;-71
2022/10/07 05:46:27;;;;;;;;;11.75;10.50;;;;;13.68;59.96;102156.38;5054037;28;45291;-74
2022/10/07 05:48:53;;;;;;;;;11.75;10.00;;;;;13.75;59.98;102166.00;5051921;28;45450;-73
2022/10/07 05:51:23;;;;;;;;;11.50;11.50;;;;;13.73;59.78;102171.44;5053738;28;45423;-71
2022/10/07 05:53:58;;;;;;;;;9.00;9.00;;;;;13.74;60.37;102169.63;5053969;28;45292;-74
2022/10/07 05:56:24;;;;;;;;;16.75;14.50;;;;;13.78;60.14;102168.59;5054224;28;45277;-71
2022/10/07 05:58:51;;;;;;;;;10.00;10.00;;;;;13.72;59.76;102158.91;5054556;28;45618;-72
2022/10/07 06:01:22;;;;;;;;;14.00;14.00;;;;;13.80;60.58;102169.41;5057865;28;45335;-71
2022/10/07 06:03:50;;;;;;;;;14.75;12.50;;;;;13.74;60.12;102150.75;5058022;28;45387;-70
2022/10/07 06:06:16;;;;;;;;;9.00;9.00;;;;;13.79;59.80;102165.81;5058093;28;45378;-72
2022/10/07 06:08:41;;;;;;;;;19.50;16.50;;;;;13.57;59.75;102137.91;5057193;28;46054;-71
2022/10/07 06:13:54;;;;;;;;;17.50;11.50;;;;;13.61;60.00;102167.34;5057362;28;45490;-69
2022/10/07 06:16:20;;;;;;;;;15.25;14.00;;;;;13.63;60.17;102170.88;5057314;28;45653;-73
2022/10/07 06:18:46;;;;;;;;;13.50;13.50;;;;;13.54;60.33;102152.34;5057023;28;45374;-72
2022/10/07 06:21:12;;;;;;;;;14.75;12.00;;;;;13.66;60.49;102163.63;5053298;28;45465;-70
2022/10/07 06:23:38;;;;;;;;;17.50;14.25;;;;;13.59;59.99;102146.81;5058099;28;45358;-70
2022/10/07 06:26:09;;;;;;;;;11.25;11.25;;;;;13.72;60.20;102164.28;5057904;28;46059;-70
2022/10/07 06:28:37;;;;;;;;;15.75;12.75;;;;;13.64;59.93;102151.09;5058393;28;45406;-71
2022/10/07 06:31:07;;;;;;;;;12.50;12.50;;;;;13.68;59.86;102157.25;5038985;28;45613;-71
2022/10/07 06:33:33;;;;;;;;;9.75;9.75;;;;;13.71;59.89;102161.63;5057189;28;45358;-71
2022/10/07 06:36:05;;;;;;;;;13.75;12.50;;;;;13.66;59.50;102155.56;5043490;28;45249;-71
2022/10/07 06:38:31;;;;;;;;;15.00;12.25;;;;;13.67;59.66;102162.69;5056992;28;45391;-69
2022/10/07 06:40:58;;;;;;;;;14.25;12.25;;;;;13.69;59.85;102166.22;5038528;28;45482;-70
2022/10/07 06:43:27;;;;;;;;;13.25;11.25;;;;;13.64;59.67;102172.66;5057098;28;45628;-70
2022/10/07 06:45:57;;;;;;;;;13.75;13.00;;;;;13.62;59.63;102163.72;5052001;28;45327;-71
2022/10/07 06:48:23;;;;;;;;;6.00;6.00;;;;;13.58;59.97;102156.72;5056871;28;46096;-71
2022/10/07 06:50:50;;;;;;;;;17.25;13.25;;;;;13.60;59.58;102159.34;5056462;28;45330;-70
2022/10/07 06:53:16;;;;;;;;;13.00;13.00;;;;;13.58;59.87;102154.03;5057060;28;45174;-71
2022/10/07 06:55:41;;;;;;;;;14.50;13.50;;;;;13.63;60.07;102161.91;5038332;28;47485;-71
2022/10/07 06:58:06;;;;;;;;;15.75;12.25;;;;;13.66;59.80;102166.34;5056479;28;46300;-72
2022/10/07 07:00:32;;;;;;;;;19.25;13.25;;;;;13.57;59.63;102154.06;5056427;28;45220;-73
2022/10/07 07:03:00;;;;;;;;;15.00;14.00;;;;;13.63;59.74;102159.22;5032613;28;45533;-73
2022/10/07 07:05:36;;;;;;;;;13.75;12.50;;;;;13.67;59.73;102163.59;5054860;28;45601;-73
2022/10/07 07:08:01;;;;;;;;;14.50;14.50;;;;;13.68;59.89;102169.84;5055445;28;45576;-73
2022/10/07 07:10:27;;;;;;;;;16.00;15.50;;;;;13.66;60.21;102164.53;5053768;28;45388;-72
2022/10/07 07:12:55;;;;;;;;;15.50;14.50;;;;;13.75;59.51;102176.78;5036916;28;45555;-72
2022/10/07 07:15:20;;;;;;;;;18.75;15.00;;;;;13.77;59.80;102183.00;5055174;28;45521;-73
2022/10/07 07:17:46;;;;;;;;;15.00;13.00;;;;;13.75;59.73;102166.88;5035901;28;46108;-69
2022/10/07 07:20:13;;;;;;;;;15.50;15.50;;;;;13.72;59.63;102171.50;5051485;28;45604;-70
2022/10/07 07:22:39;;;;;;;;;11.75;11.75;;;;;13.62;59.53;102155.66;5054200;28;45528;-72
2022/10/07 07:25:05;;;;;;;;;17.25;13.00;;;;;13.69;59.68;102163.53;5036229;28;45807;-73
2022/10/07 07:27:31;;;;;;;;;18.75;13.00;;;;;13.72;59.69;102166.97;5053497;28;45754;-69
2022/10/07 07:29:57;;;;;;;;;11.75;10.00;;;;;13.74;59.68;102162.44;5035381;28;45723;-69
2022/10/07 07:32:23;;;;;;;;;10.00;10.00;;;;;13.70;59.97;102143.72;5055600;28;45625;-70
2022/10/07 07:34:49;;;;;;;;;15.25;12.00;;;;;13.71;59.48;102149.03;5055683;28;45519;-71
2022/10/07 07:37:16;;;;;;;;;18.00;15.75;;;;;13.78;59.39;102163.22;5055472;28;46414;-70
2022/10/07 07:39:41;;;;;;;;;15.25;12.25;;;;;13.81;59.59;102163.06;5055682;28;45308;-70
2022/10/07 07:42:07;;;;;;;;;13.75;12.75;;;;;13.85;59.49;102165.63;5036629;28;45422;-70
2022/10/07 07:44:35;;;;;;;;;12.00;12.00;;;;;13.84;59.59;102161.16;5055031;28;45434;-70
2022/10/07 07:47:01;;;;;;;;;12.50;9.50;;;;;13.86;59.51;102153.03;5054577;28;45449;-69
2022/10/07 07:49:30;;;;;;;;;17.00;11.50;;;;;13.92;59.36;102150.09;5055638;28;45409;-71
2022/10/07 07:51:57;;;;;;;;;15.00;11.50;;;;;13.97;59.50;102154.34;5055120;28;45489;-70
2022/10/07 07:54:25;;;;;;;;;15.75;12.25;;;;;14.03;58.99;102150.56;5055398;28;45367;-69
2022/10/07 07:56:52;;;;;;;;;14.75;13.25;;;;;14.10;59.06;102146.69;5053636;28;46283;-70
2022/10/07 07:59:17;;;;;;;;;12.50;10.50;;;;;14.04;58.90;102136.13;5049486;28;46105;-69
2022/10/07 08:01:44;;;;;;;;;14.50;13.50;;;;;14.19;58.85;102140.06;5055916;28;45349;-70
2022/10/07 08:04:09;;;;;;;;;13.00;11.75;;;;;14.15;58.69;102130.31;5050696;28;45474;-71
2022/10/07 08:06:35;;;;;;;;;11.75;11.75;;;;;14.26;59.14;102141.59;5055886;28;45557;-70
2022/10/07 08:09:01;;;;;;;;;12.25;11.00;;;;;14.31;59.00;102145.84;5055090;28;45415;-70
2022/10/07 08:11:27;;;;;;;;;8.50;8.50;;;;;14.30;58.77;102136.00;5052043;28;45291;-69
2022/10/07 08:13:54;;;;;;;;;11.50;10.75;;;;;14.39;58.38;102140.19;5055206;28;45491;-70
2022/10/07 08:16:22;;;;;;;;;14.00;12.50;;;;;14.43;58.40;102143.66;5055016;28;46481;-70
2022/10/07 08:18:49;;;;;;;;;12.50;9.75;;;;;14.52;58.41;102146.88;5054901;28;45902;-69
2022/10/07 08:21:17;;;;;;;;;10.50;10.50;;;;;14.48;58.02;102126.34;5054914;28;45404;-69
2022/10/07 08:23:43;;;;;;;;;9.50;9.50;;;;;14.57;58.02;102125.09;5041216;28;45337;-69
2022/10/07 08:26:08;;;;;;;;;10.50;8.50;;;;;14.71;57.96;102131.69;5054084;28;45440;-70
2022/10/07 08:28:35;;;;;;;;;11.50;10.75;;;;;14.75;57.89;102135.13;5054944;28;45289;-69
2022/10/07 08:31:06;;;;;;;;;10.00;10.00;;;;;14.83;57.40;102134.81;5053987;28;45516;-70
2022/10/07 08:33:34;;;;;;;;;9.75;8.00;;;;;14.88;57.94;102127.41;5052730;28;45894;-69
2022/10/07 08:36:03;;;;;;;;;7.00;7.00;;;;;14.89;57.28;102121.94;5051806;28;46824;-69
2022/10/07 08:38:30;;;;;;;;;10.00;10.00;;;;;14.88;57.70;102100.41;5054937;28;45407;-69
2022/10/07 08:41:09;;;;;;;;;12.75;10.75;;;;;15.02;57.30;102120.47;5054817;28;45360;-69
2022/10/07 08:43:43;;;;;;;;;12.50;11.75;;;;;15.08;57.44;102122.03;5055076;28;45331;-70
2022/10/07 08:46:14;;;;;;;;;14.00;12.25;;;;;15.13;56.89;102123.63;5054685;28;46365;-70
2022/10/07 08:48:44;;;;;;;;;11.25;11.00;;;;;15.14;56.66;102111.84;5054592;28;45312;-70
2022/10/07 08:51:32;;;;;;;;;11.00;10.25;;;;;15.24;57.03;102114.16;5054445;28;45379;-70
2022/10/07 08:53:58;;;;;;;;;12.50;12.00;;;;;15.30;57.17;102112.09;5054293;28;45537;-70
2022/10/07 08:56:25;;;;;;;;;17.75;17.00;;;;;15.35;56.40;102111.88;5054217;28;45537;-71
2022/10/07 08:58:57;;;;;;;;;11.75;7.75;;;;;15.41;56.88;102111.59;5055417;28;45407;-70
2022/10/07 09:01:35;;;;;;;;;11.75;11.00;;;;;15.47;56.64;102111.34;5055158;28;45430;-71
2022/10/07 09:04:06;;;;;;;;;12.25;11.50;;;;;15.52;56.12;102101.19;5054641;28;45759;-69
2022/10/07 09:06:41;;;;;;;;;9.50;9.50;;;;;15.51;56.04;102091.31;5054670;28;46281;-76
2022/10/07 09:09:40;;;;;;;;;9.00;9.00;;;;;15.61;56.13;102089.09;5037258;28;45376;-76
2022/10/07 09:12:11;;;;;;;;;9.00;9.00;;;;;15.70;55.24;102100.38;5023584;28;45471;-76
2022/10/07 09:14:40;;;;;;;;;8.00;6.75;;;;;15.67;56.14;102083.41;5034164;28;46651;-77
2022/10/07 09:17:13;;;;;;;;;9.25;7.75;;;;;15.78;55.48;102078.41;5032237;28;45330;-73
2022/10/07 09:19:45;;;;;;;;;7.00;4.75;;;;;15.84;54.70;102080.81;5052198;28;45592;-74
2022/10/07 09:22:17;;;;;;;;;5.50;5.25;;;;;15.94;55.12;102075.84;5053862;28;45266;-74
2022/10/07 09:24:51;;;;;;;;;4.00;4.00;;;;;15.97;54.73;102067.59;5054264;28;45621;-73
2022/10/07 09:27:21;;;;;;;;;4.75;4.00;;;;;16.03;54.56;102070.00;5044425;28;45489;-73
2022/10/07 09:29:47;;;;;;;;;4.25;4.25;;;;;16.00;54.04;102049.38;5054289;28;45466;-75
2022/10/07 09:32:17;;;;;;;;;4.00;4.00;;;;;16.12;53.47;102056.03;5054213;28;45556;-73
2022/10/07 09:34:43;;;;;;;;;7.50;3.75;;;;;16.17;53.66;102053.97;5053345;28;45521;-73
2022/10/07 09:37:16;;;;;;;;;3.00;3.00;;;;;16.26;53.75;102053.53;5054606;28;45358;-72
2022/10/07 09:39:43;;;;;;;;;3.50;3.00;;;;;16.33;54.12;102049.59;5054278;28;45359;-74
2022/10/07 09:42:30;;;;;;;;;4.00;4.00;;;;;16.37;53.12;102053.03;5035998;28;45420;-75
2022/10/07 09:44:59;;;;;;;;;4.25;4.25;;;;;16.43;52.98;102050.88;5035367;28;46192;-73
2022/10/07 09:47:30;;;;;;;;;6.00;4.00;;;;;16.49;53.26;102044.31;5054290;28;45326;-77
2022/10/07 09:49:58;;;;;;;;;3.75;3.75;;;;;16.48;52.68;102029.91;5037325;28;45540;-76
2022/10/07 09:52:28;;;;;;;;;4.25;2.75;;;;;16.54;52.64;102029.56;5050581;28;45657;-73
2022/10/07 09:54:59;;;;;;;;;6.25;3.00;;;;;16.63;52.12;102037.28;5050936;28;45696;-73
2022/10/07 09:57:32;;;;;;;;;4.75;3.00;;;;;16.66;52.09;102029.97;5051276;28;46352;-69
2022/10/07 10:00:22;;;;;;;;;6.50;4.00;;;;;16.62;52.86;102011.16;5052564;28;45887;-75
2022/10/07 10:02:52;;;;;;;;;3.50;2.00;;;;;16.69;51.09;102013.53;5035288;28;45427;-73
2022/10/07 10:05:21;;;;;;;;;3.00;3.00;;;;;16.78;51.40;102021.19;5053439;28;45495;-74
2022/10/07 10:07:52;;;;;;;;;3.25;2.50;;;;;16.83;51.50;102016.44;5053363;28;45353;-74
2022/10/07 10:10:31;;;;;;;;;3.00;2.00;;;;;16.90;51.48;102016.03;5053457;28;45367;-72
2022/10/07 10:12:59;;;;;;;;;2.00;2.00;;;;;16.95;50.86;102016.66;5044044;28;45727;-73
2022/10/07 10:15:43;;;;;;;;;3.50;3.50;;;;;17.01;50.83;102012.78;5034111;28;47172;-76
2022/10/07 10:18:27;;;;;;;;;4.00;2.00;;;;;17.06;50.17;102005.25;5032359;28;47015;-71
2022/10/07 10:20:54;;;;;;;;;7.00;3.00;;;;;17.06;49.91;101998.97;5053011;28;45485;-73
2022/10/07 10:23:33;;;;;;;;;2.00;2.00;;;;;17.14;49.98;102000.31;5052092;28;46283;-72
2022/10/07 10:26:26;;;;;;;;;5.50;2.00;;;;;17.21;50.24;101996.31;5051546;28;46202;-73
2022/10/07 10:29:01;;;;;;;;;2.00;2.00;;;;;17.28;49.29;101994.13;5055271;28;45525;-72
2022/10/07 10:32:06;;;;;;;;;3.75;0.75;;;;;17.35;49.51;101996.44;5032696;28;45460;-73
2022/10/07 10:35:02;;;;;;;;;8.25;1.00;;;;;17.40;48.74;101983.50;5035286;28;45684;-73
2022/10/07 10:37:39;;;;;;;;;0.50;0.50;;;;;17.49;48.25;101984.84;5033824;28;45319;-74
2022/10/07 10:40:16;;;;;;;;;1.00;1.00;;;;;17.50;48.48;101973.03;5019701;28;45453;-74
2022/10/07 10:43:10;;;;;;;;;3.50;2.75;;;;;17.59;47.93;101986.09;5032611;28;45631;-75
2022/10/07 10:45:54;;;;;;;;;2.25;2.00;;;;;17.66;46.62;101983.94;5023733;28;45524;-73
2022/10/07 10:48:41;;;;;;;;;2.00;2.00;;;;;17.71;47.27;101974.59;5036671;28;45513;-72
2022/10/07 10:51:09;;;;;;;;;2.25;1.50;;;;;17.83;47.25;101972.16;5034910;28;46469;-73
2022/10/07 10:54:14;;;;;;;;;3.00;1.00;;;;;17.92;47.55;101964.38;5036297;28;45353;-72
2022/10/07 10:56:46;;;;;;;;;3.50;1.00;;;;;18.13;47.03;101967.66;5035958;28;45362;-74
2022/10/07 10:59:27;;;;;;;;;2.50;2.50;;;;;18.31;45.69;101971.16;5035743;28;46479;-74
2022/10/07 11:02:15;;;;;;;;;3.25;2.00;;;;;18.48;44.72;101957.44;5036495;28;45411;-74
2022/10/07 11:04:49;;;;;;;;;2.75;2.50;;;;;18.81;45.11;101946.41;5001193;28;45423;-75
2022/10/07 11:07:26;;;;;;;;;4.75;1.00;;;;;19.46;44.10;101952.31;5039833;28;45374;-73
2022/10/07 11:10:02;;;;;;;;;3.75;2.75;;;;;20.05;43.13;101937.56;5038739;28;45243;-73
2022/10/07 11:12:39;;;;;;;;;4.50;3.50;;;;;20.59;40.89;101929.38;5036529;28;48201;-73
2022/10/07 11:15:48;;;;;;;;;4.25;4.25;;;;;21.07;40.66;101925.06;5036143;28;45505;-74
2022/10/07 11:18:29;;;;;;;;;2.00;2.00;;;;;21.59;39.78;101921.34;5026784;28;45451;-73
2022/10/07 11:20:58;;;;;;;;;2.75;2.00;;;;;22.10;39.66;101914.75;5036127;28;45233;-72
2022/10/07 11:23:50;;;;;;;;;4.25;3.50;;;;;22.70;37.92;101919.22;5035907;28;46297;-73
2022/10/07 11:26:18;;;;;;;;;1.75;1.75;;;;;23.05;35.85;101910.13;5035021;28;45381;-73
2022/10/07 11:28:45;;;;;;;;;2.50;2.50;;;;;23.64;35.87;101906.19;5036699;28;46339;-71
2022/10/07 11:31:45;;;;;;;;;2.00;2.00;;;;;24.42;32.41;101903.22;5034246;28;46144;-73
2022/10/07 11:34:15;;;;;;;;;4.50;2.50;;;;;25.10;31.66;101882.63;5034500;28;48220;-73
2022/10/07 11:36:54;;;;;;;;;1.50;1.25;;;;;26.20;28.80;101892.66;5035935;28;45299;-73
2022/10/07 11:39:20;;;;;;;;;2.50;2.50;;;;;26.70;28.53;101878.81;5036102;28;45482;-73
2022/10/07 11:41:49;;;;;;;;;3.00;1.50;;;;;27.52;28.40;101881.72;5036376;28;45763;-74
2022/10/07 11:44:31;;;;;;;;;2.25;2.25;;;;;28.16;26.84;101875.28;5035683;28;46320;-74
2022/10/07 11:47:01;;;;;;;;;2.75;2.00;;;;;29.01;25.25;101873.78;5035083;28;45553;-78
2022/10/07 11:49:38;;;;;;;;;2.00;2.00;;;;;29.67;23.76;101861.00;5034380;28;45379;-72
2022/10/07 11:52:17;;;;;;;;;2.50;1.25;;;;;30.44;23.53;101861.69;5029636;28;45481;-73
2022/10/07 11:54:53;;;;;;;;;2.00;2.00;;;;;31.42;22.61;101860.50;5032718;28;46146;-73
2022/10/07 11:57:23;;;;;;;;;0.50;0.00;;;;;32.42;22.35;101846.75;5034804;28;45326;-74
2022/10/07 11:59:56;;;;;;;;;2.00;2.00;;;;;32.59;20.98;101835.31;5031860;28;45935;-72
2022/10/07 12:02:28;;;;;;;;;1.00;1.00;;;;;32.81;20.90;101843.81;5034304;28;45981;-71
2022/10/07 12:05:01;;;;;;;;;5.00;0.75;;;;;33.30;20.46;101831.13;5034146;28;45386;-72
2022/10/07 12:07:41;;;;;;;;;1.00;1.00;;;;;34.07;19.98;101836.16;5033032;28;45619;-72
2022/10/07 12:10:21;;;;;;;;;2.00;0.00;;;;;34.77;18.62;101840.94;5034237;28;45308;-72
2022/10/07 12:12:53;;;;;;;;;3.00;1.00;;;;;35.09;18.28;101820.78;5035227;28;45335;-73
2022/10/07 12:15:32;;;;;;;;;4.25;1.00;;;;;35.53;18.29;101820.41;5034849;28;46192;-73
2022/10/07 12:18:26;;;;;;;;;0.75;0.00;;;;;36.10;17.71;101807.91;5035165;28;45334;-73
2022/10/07 12:20:51;;;;;;;;;2.00;0.00;;;;;36.65;17.15;101808.63;5025574;28;45516;-73
2022/10/07 12:23:35;;;;;;;;;1.25;1.00;;;;;36.87;16.82;101804.53;5030772;28;45676;-73
2022/10/07 12:26:05;;;;;;;;;1.25;1.25;;;;;37.04;16.51;101802.13;5035049;28;45385;-71
2022/10/07 12:28:33;;;;;;;;;1.00;1.00;;;;;37.33;17.12;101792.38;5034706;28;45420;-73
2022/10/07 12:31:01;;;;;;;;;0.75;0.75;;;;;37.43;16.89;101778.78;5038958;28;45388;-71
2022/10/07 12:33:36;;;;;;;;;0.25;0.00;;;;;37.70;16.04;101788.75;5036710;28;46255;-71
2022/10/07 12:36:23;;;;;;;;;1.00;1.00;;;;;37.61;15.67;101778.06;5036789;28;46136;-73
2022/10/07 12:38:58;;;;;;;;;1.00;0.25;;;;;37.57;16.37;101769.22;5055206;28;45334;-72
2022/10/07 12:41:29;;;;;;;;;1.00;1.00;;;;;37.71;16.28;101765.28;5050424;28;45426;-72
2022/10/07 12:44:03;;;;;;;;;1.00;1.00;;;;;37.74;15.43;101758.41;5048088;28;45454;-72
2022/10/07 12:46:33;;;;;;;;;2.00;1.00;;;;;37.77;15.82;101750.38;5055952;28;45307;-72
2022/10/07 12:49:12;;;;;;;;;1.25;1.00;;;;;37.30;15.73;101750.84;5055453;28;45375;-71
2022/10/07 12:51:39;;;;;;;;;5.00;2.00;;;;;36.42;16.27;101733.63;5036526;28;45470;-73
2022/10/07 12:54:22;;;;;;;;;3.25;2.25;;;;;35.75;16.75;101736.56;5051350;28;45408;-72
2022/10/07 12:56:49;;;;;;;;;2.75;2.00;;;;;35.24;17.56;101723.09;5046651;28;46205;-73
2022/10/07 12:59:49;;;;;;;;;1.00;1.00;;;;;35.15;16.85;101738.25;5035804;28;45370;-72
2022/10/07 13:02:48;;;;;;;;;1.00;0.00;;;;;34.69;16.40;101733.28;5054634;28;45521;-73
2022/10/07 13:05:47;;;;;;;;;1.00;1.00;;;;;34.82;16.53;101725.00;5054326;28;45392;-73
2022/10/07 13:08:51;;;;;;;;;4.00;1.50;;;;;34.15;16.74;101727.47;5034377;28;48166;-74
2022/10/07 13:11:51;;;;;;;;;0.50;0.50;;;;;33.95;17.72;101731.97;5014016;28;45389;-72
2022/10/07 13:14:29;;;;;;;;;1.75;1.00;;;;;34.47;16.89;101707.41;5040505;28;45319;-73
2022/10/07 13:16:57;;;;;;;;;1.00;1.00;;;;;34.46;17.10;101707.59;5054382;28;45447;-73
2022/10/07 13:19:31;;;;;;;;;1.00;0.00;;;;;34.95;17.11;101701.94;5054255;28;45495;-71
2022/10/07 13:22:13;;;;;;;;;1.75;0.50;;;;;35.18;16.00;101698.81;5053751;28;45447;-73
2022/10/07 13:24:48;;;;;;;;;2.00;0.75;;;;;35.30;16.74;101691.59;5053313;28;45428;-71
2022/10/07 13:27:18;;;;;;;;;0.50;0.50;;;;;35.29;16.35;101692.66;5054142;28;45580;-71
2022/10/07 13:29:45;;;;;;;;;0.75;0.75;;;;;34.17;16.95;101695.59;5053966;28;46378;-72
2022/10/07 13:32:23;;;;;;;;;0.00;0.00;;;;;33.83;17.50;101703.84;5058802;28;45323;-74
2022/10/07 13:34:50;;;;;;;;;5.25;1.00;;;;;34.17;17.71;101687.25;5054337;28;45410;-73
2022/10/07 13:37:34;;;;;;;;;1.50;0.00;;;;;34.30;16.60;101694.84;5035631;28;45370;-73
2022/10/07 13:40:19;;;;;;;;;3.00;0.50;;;;;34.59;17.60;101678.97;5053981;28;45367;-73
2022/10/07 13:42:51;;;;;;;;;3.50;2.00;;;;;35.12;16.77;101680.13;5054015;28;45418;-72
2022/10/07 13:45:16;;;;;;;;;1.00;1.00;;;;;35.13;16.32;101665.97;5054305;28;45399;-73
2022/10/07 13:47:45;;;;;;;;;2.25;0.00;;;;;35.36;16.37;101674.03;5053626;28;45305;-73
2022/10/07 13:50:18;;;;;;;;;1.00;1.00;;;;;35.74;15.62;101665.94;5052898;28;47481;-73
2022/10/07 13:52:46;;;;;;;;;0.50;0.00;;;;;35.45;16.16;101666.31;5053283;28;45250;-72
2022/10/07 13:55:24;;;;;;;;;0.00;0.00;;;;;35.10;16.42;101666.41;5053757;28;45439;-73
2022/10/07 13:57:51;;;;;;;;;4.00;0.25;;;;;35.35;16.60;101652.78;5040799;28;45351;-73
2022/10/07 14:00:17;;;;;;;;;1.00;1.00;;;;;35.74;16.03;101654.78;5033824;28;47519;-73
2022/10/07 14:02:43;;;;;;;;;0.25;0.25;;;;;35.72;15.76;101645.78;5053512;28;45467;-74
2022/10/07 14:05:20;;;;;;;;;1.50;0.75;;;;;35.66;16.44;101644.66;5035261;28;45401;-72
2022/10/07 14:07:52;;;;;;;;;0.75;0.75;;;;;35.74;16.09;101648.34;5051808;28;45467;-72
2022/10/07 14:10:18;;;;;;;;;0.75;0.75;;;;;35.91;15.80;101624.50;5052984;28;46197;-73
2022/10/07 14:12:50;;;;;;;;;1.00;1.00;;;;;36.09;15.76;101637.81;5053868;28;45347;-72
2022/10/07 14:15:22;;;;;;;;;2.00;2.00;;;;;36.24;16.43;101610.56;5053895;28;45349;-75
2022/10/07 14:17:48;;;;;;;;;0.25;0.25;;;;;35.79;15.56;101638.28;5053480;28;45347;-73
2022/10/07 14:20:36;;;;;;;;;3.75;0.00;;;;;35.36;16.32;101628.53;5053720;28;46223;-73
2022/10/07 14:23:05;;;;;;;;;1.00;1.00;;;;;35.51;16.28;101620.84;5054978;28;45538;-73
2022/10/07 14:25:55;;;;;;;;;2.00;0.00;;;;;35.33;15.15;101623.38;5037705;28;45333;-74
2022/10/07 14:28:23;;;;;;;;;0.00;0.00;;;;;35.21;16.20;101634.28;5054980;28;45387;-74
2022/10/07 14:37:09;;;;;;;;;0.00;0.00;;;;;35.54;16.04;101612.06;5045326;28;45273;-74
2022/10/07 14:39:35;;;;;;;;;0.00;0.00;;;;;35.68;16.40;101602.59;5048568;28;47369;-71
2022/10/07 14:42:02;;;;;;;;;2.50;0.00;;;;;35.85;16.14;101598.34;5046400;28;45239;-71
2022/10/07 14:44:28;;;;;;;;;0.00;0.00;;;;;35.98;15.90;101601.09;5056550;28;45555;-72
2022/10/07 14:47:20;;;;;;;;;0.00;0.00;;;;;35.64;15.84;101579.84;5055447;28;45358;-73
2022/10/07 14:49:48;;;;;;;;;0.75;0.75;;;;;35.60;15.99;101598.09;5044167;28;45211;-73
2022/10/07 14:52:30;;;;;;;;;2.00;1.00;;;;;35.69;16.37;101604.31;5059665;28;46641;-73
2022/10/07 14:54:58;;;;;;;;;0.00;0.00;;;;;34.82;16.64;101562.53;5046845;28;45496;-74
2022/10/07 14:57:24;;;;;;;;;2.00;1.00;;;;;34.22;16.99;101600.31;5052658;28;45423;-72
2022/10/07 14:59:50;;;;;;;;;2.00;0.00;;;;;33.93;17.82;101586.66;5056148;28;45565;-74
2022/10/07 15:02:16;;;;;;;;;0.50;0.25;;;;;33.95;17.61;101592.84;5056256;28;45378;-73
2022/10/07 15:04:44;;;;;;;;;2.00;0.00;;;;;33.87;17.40;101593.88;5056506;28;45491;-72
2022/10/07 15:07:12;;;;;;;;;1.25;0.00;;;;;33.48;18.25;101590.75;5054318;28;45352;-70
2022/10/07 15:09:37;;;;;;;;;0.00;0.00;;;;;32.94;18.55;101580.97;5054375;28;45357;-76
2022/10/07 15:12:04;;;;;;;;;1.00;1.00;;;;;32.90;19.09;101596.31;5052305;28;45544;-71
2022/10/07 15:14:30;;;;;;;;;2.75;0.00;;;;;32.63;18.86;101586.75;5053489;28;45540;-69
2022/10/07 15:16:56;;;;;;;;;0.00;0.00;;;;;32.86;19.21;101578.31;5054494;28;45433;-75
2022/10/07 15:19:21;;;;;;;;;0.00;0.00;;;;;32.42;19.01;101583.03;5054925;28;45348;-77
2022/10/07 15:21:47;;;;;;;;;0.00;0.00;;;;;32.13;19.06;101570.03;5054780;28;45446;-75
2022/10/07 15:24:12;;;;;;;;;1.00;1.00;;;;;32.31;19.31;101576.94;5054536;28;45393;-77
2022/10/07 15:26:38;;;;;;;;;0.75;0.00;;;;;32.23;19.05;101571.50;5054383;28;45457;-75
2022/10/07 15:29:06;;;;;;;;;2.75;0.00;;;;;31.80;19.73;101555.66;5052056;28;45958;-75
2022/10/07 15:31:32;;;;;;;;;0.00;0.00;;;;;31.18;19.86;101569.69;5049703;28;47220;-74
2022/10/07 15:33:58;;;;;;;;;1.00;0.00;;;;;30.57;20.40;101560.34;5052433;28;45480;-74
2022/10/07 15:36:27;;;;;;;;;2.25;1.00;;;;;30.28;21.12;101571.19;5060302;28;45491;-74
2022/10/07 15:38:54;;;;;;;;;0.00;0.00;;;;;30.47;21.60;101565.19;5055495;28;46157;-76
2022/10/07 15:41:31;;;;;;;;;1.25;1.25;;;;;30.67;20.76;101574.84;5066000;28;45376;-75
2022/10/07 15:44:02;;;;;;;;;3.25;0.75;;;;;30.37;20.83;101582.03;5055801;28;45428;-73
2022/10/07 15:46:27;;;;;;;;;0.00;0.00;;;;;29.53;21.98;101570.59;5055259;28;45455;-73
2022/10/07 15:48:56;;;;;;;;;0.50;0.00;;;;;28.96;22.70;101576.06;5055785;28;45792;-74
2022/10/07 15:51:24;;;;;;;;;0.75;0.75;;;;;28.58;22.41;101572.81;5055959;28;46016;-72
2022/10/07 15:53:49;;;;;;;;;0.00;0.00;;;;;28.17;22.94;101565.41;5036851;28;46057;-73
2022/10/07 15:56:15;;;;;;;;;0.00;0.00;;;;;28.15;23.61;101561.94;5055822;28;45551;-72
2022/10/07 15:58:40;;;;;;;;;0.00;0.00;;;;;27.65;23.14;101546.13;5055202;28;45406;-70
2022/10/07 16:01:07;;;;;;;;;0.00;0.00;;;;;27.52;24.12;101564.94;5037382;28;46118;-71
2022/10/07 16:03:38;;;;;;;;;0.75;0.75;;;;;27.19;23.97;101571.19;5056076;28;45387;-74
2022/10/07 16:06:09;;;;;;;;;1.00;0.00;;;;;26.87;24.07;101561.56;5054648;28;45411;-72
2022/10/07 16:08:34;;;;;;;;;0.00;0.00;;;;;26.69;23.99;101558.81;5055157;28;45263;-72
2022/10/07 16:11:01;;;;;;;;;0.00;0.00;;;;;26.60;24.77;101548.72;5053264;28;45952;-76
2022/10/07 16:13:28;;;;;;;;;0.75;0.75;;;;;26.26;24.16;101566.88;5054454;28;45553;-75
2022/10/07 16:16:02;;;;;;;;;0.75;0.75;;;;;25.75;25.20;101568.19;5055282;28;45340;-74
2022/10/07 16:18:35;;;;;;;;;1.00;1.00;;;;;25.50;24.88;101569.66;5055178;28;45490;-76
2022/10/07 16:21:10;;;;;;;;;0.00;0.00;;;;;25.22;25.48;101568.66;5055234;28;45311;-71